sensor_id;sensor_type;location;lat;lon;timestamp;P1;durP1;ratioP1;P2;durP2;ratioP2
20497;SDS011;10407;53.238;10.448;2023-03-31T00:00:55;89.03;;;8.00;;
20497;SDS011;10407;53.238;10.448;2023-03-31T00:03:24;88.80;;;8.10;;
20497;SDS011;10407;53.238;10.448;2023-03-31T00:05:55;84.80;;;8.13;;
20497;SDS011;10407;53.238;10.448;2023-03-31T00:08:32;85.83;;;6.83;;
20497;SDS011;10407;53.238;10.448;2023-03-31T00:10:58;80.27;;;7.63;;
20497;SDS011;10407;53.238;10.448;2023-03-31T00:13:27;76.87;;;7.90;;
20497;SDS011;10407;53.238;10.448;2023-03-31T00:16:01;83.40;;;9.70;;
20497;SDS011;10407;53.238;10.448;2023-03-31T00:18:26;83.17;;;7.80;;
20497;SDS011;10407;53.238;10.448;2023-03-31T00:20:57;84.33;;;7.60;;
20497;SDS011;10407;53.238;10.448;2023-03-31T00:23:34;85.03;;;7.63;;
20497;SDS011;10407;53.238;10.448;2023-03-31T00:26:01;86.87;;;7.57;;
20497;SDS011;10407;53.238;10.448;2023-03-31T00:28:29;83.70;;;8.23;;
20497;SDS011;10407;53.238;10.448;2023-03-31T00:31:00;81.70;;;7.07;;
20497;SDS011;10407;53.238;10.448;2023-03-31T00:33:28;91.20;;;8.73;;
20497;SDS011;10407;53.238;10.448;2023-03-31T00:35:56;83.83;;;8.33;;
20497;SDS011;10407;53.238;10.448;2023-03-31T00:38:25;89.53;;;9.00;;
20497;SDS011;10407;53.238;10.448;2023-03-31T00:40:55;84.07;;;8.23;;
20497;SDS011;10407;53.238;10.448;2023-03-31T00:43:30;84.33;;;8.23;;
20497;SDS011;10407;53.238;10.448;2023-03-31T00:46:14;94.13;;;9.20;;
20497;SDS011;10407;53.238;10.448;2023-03-31T00:48:45;79.70;;;8.33;;
20497;SDS011;10407;53.238;10.448;2023-03-31T00:51:21;89.67;;;8.93;;
20497;SDS011;10407;53.238;10.448;2023-03-31T00:53:52;84.53;;;10.20;;
20497;SDS011;10407;53.238;10.448;2023-03-31T00:56:22;82.90;;;9.57;;
20497;SDS011;10407;53.238;10.448;2023-03-31T00:58:51;84.40;;;9.73;;
20497;SDS011;10407;53.238;10.448;2023-03-31T01:01:21;87.60;;;9.80;;
20497;SDS011;10407;53.238;10.448;2023-03-31T01:03:52;80.77;;;9.17;;
20497;SDS011;10407;53.238;10.448;2023-03-31T01:06:19;85.33;;;10.37;;
20497;SDS011;10407;53.238;10.448;2023-03-31T01:08:48;88.40;;;9.13;;
20497;SDS011;10407;53.238;10.448;2023-03-31T01:11:18;86.77;;;9.67;;
20497;SDS011;10407;53.238;10.448;2023-03-31T01:13:48;89.67;;;9.87;;
20497;SDS011;10407;53.238;10.448;2023-03-31T01:16:20;84.37;;;10.10;;
20497;SDS011;10407;53.238;10.448;2023-03-31T01:18:48;93.07;;;10.80;;
20497;SDS011;10407;53.238;10.448;2023-03-31T01:21:37;88.70;;;9.70;;
20497;SDS011;10407;53.238;10.448;2023-03-31T01:24:29;83.33;;;9.13;;
20497;SDS011;10407;53.238;10.448;2023-03-31T01:27:06;82.00;;;9.77;;
20497;SDS011;10407;53.238;10.448;2023-03-31T01:35:23;92.90;;;9.30;;
20497;SDS011;10407;53.238;10.448;2023-03-31T01:40:56;81.80;;;9.30;;
20497;SDS011;10407;53.238;10.448;2023-03-31T01:43:32;90.43;;;10.77;;
20497;SDS011;10407;53.238;10.448;2023-03-31T01:46:16;87.23;;;10.43;;
20497;SDS011;10407;53.238;10.448;2023-03-31T01:51:44;87.13;;;9.43;;
20497;SDS011;10407;53.238;10.448;2023-03-31T01:57:11;82.57;;;9.97;;
20497;SDS011;10407;53.238;10.448;2023-03-31T01:59:47;84.70;;;9.90;;
20497;SDS011;10407;53.238;10.448;2023-03-31T02:02:20;87.20;;;11.10;;
20497;SDS011;10407;53.238;10.448;2023-03-31T02:04:48;90.07;;;12.57;;
20497;SDS011;10407;53.238;10.448;2023-03-31T02:07:27;85.27;;;11.67;;
20497;SDS011;10407;53.238;10.448;2023-03-31T02:09:54;89.13;;;12.70;;
20497;SDS011;10407;53.238;10.448;2023-03-31T02:12:23;83.97;;;8.97;;
20497;SDS011;10407;53.238;10.448;2023-03-31T02:14:53;84.47;;;11.50;;
20497;SDS011;10407;53.238;10.448;2023-03-31T02:17:24;88.00;;;12.00;;
20497;SDS011;10407;53.238;10.448;2023-03-31T02:19:56;92.10;;;10.40;;
20497;SDS011;10407;53.238;10.448;2023-03-31T02:22:26;91.60;;;11.40;;
20497;SDS011;10407;53.238;10.448;2023-03-31T02:24:56;89.20;;;12.63;;
20497;SDS011;10407;53.238;10.448;2023-03-31T02:27:37;87.40;;;11.63;;
20497;SDS011;10407;53.238;10.448;2023-03-31T02:30:08;85.23;;;10.33;;
20497;SDS011;10407;53.238;10.448;2023-03-31T02:32:41;86.23;;;11.97;;
20497;SDS011;10407;53.238;10.448;2023-03-31T02:35:17;88.07;;;12.00;;
20497;SDS011;10407;53.238;10.448;2023-03-31T02:37:42;85.90;;;11.33;;
20497;SDS011;10407;53.238;10.448;2023-03-31T02:40:11;87.00;;;11.70;;
20497;SDS011;10407;53.238;10.448;2023-03-31T02:42:47;89.63;;;10.40;;
20497;SDS011;10407;53.238;10.448;2023-03-31T02:48:03;85.63;;;10.90;;
20497;SDS011;10407;53.238;10.448;2023-03-31T02:50:34;90.53;;;10.97;;
20497;SDS011;10407;53.238;10.448;2023-03-31T02:53:10;83.90;;;10.53;;
20497;SDS011;10407;53.238;10.448;2023-03-31T02:56:06;88.83;;;11.57;;
20497;SDS011;10407;53.238;10.448;2023-03-31T02:59:29;88.77;;;11.40;;
20497;SDS011;10407;53.238;10.448;2023-03-31T03:01:24;88.37;;;11.10;;
20497;SDS011;10407;53.238;10.448;2023-03-31T03:07:02;82.90;;;10.60;;
20497;SDS011;10407;53.238;10.448;2023-03-31T03:12:12;89.80;;;12.80;;
20497;SDS011;10407;53.238;10.448;2023-03-31T03:17:27;84.90;;;11.30;;
20497;SDS011;10407;53.238;10.448;2023-03-31T03:20:02;100.97;;;12.80;;
20497;SDS011;10407;53.238;10.448;2023-03-31T03:22:34;91.53;;;11.20;;
20497;SDS011;10407;53.238;10.448;2023-03-31T03:25:03;94.90;;;11.27;;
20497;SDS011;10407;53.238;10.448;2023-03-31T03:27:31;87.47;;;11.73;;
20497;SDS011;10407;53.238;10.448;2023-03-31T03:30:01;90.80;;;12.67;;
20497;SDS011;10407;53.238;10.448;2023-03-31T03:32:30;87.30;;;11.20;;
20497;SDS011;10407;53.238;10.448;2023-03-31T03:35:01;88.00;;;12.40;;
20497;SDS011;10407;53.238;10.448;2023-03-31T03:37:31;91.13;;;12.93;;
20497;SDS011;10407;53.238;10.448;2023-03-31T03:39:59;90.67;;;13.30;;
20497;SDS011;10407;53.238;10.448;2023-03-31T03:42:26;88.77;;;11.93;;
20497;SDS011;10407;53.238;10.448;2023-03-31T03:44:54;89.63;;;11.87;;
20497;SDS011;10407;53.238;10.448;2023-03-31T03:47:21;91.00;;;12.70;;
20497;SDS011;10407;53.238;10.448;2023-03-31T03:49:49;92.70;;;12.17;;
20497;SDS011;10407;53.238;10.448;2023-03-31T03:52:17;91.17;;;10.50;;
20497;SDS011;10407;53.238;10.448;2023-03-31T03:54:46;87.20;;;12.33;;
20497;SDS011;10407;53.238;10.448;2023-03-31T03:57:14;89.73;;;11.00;;
20497;SDS011;10407;53.238;10.448;2023-03-31T03:59:41;88.33;;;12.00;;
20497;SDS011;10407;53.238;10.448;2023-03-31T04:02:09;90.00;;;11.30;;
20497;SDS011;10407;53.238;10.448;2023-03-31T04:04:36;91.07;;;11.10;;
20497;SDS011;10407;53.238;10.448;2023-03-31T04:07:04;87.93;;;11.40;;
20497;SDS011;10407;53.238;10.448;2023-03-31T04:09:31;86.97;;;10.63;;
20497;SDS011;10407;53.238;10.448;2023-03-31T04:11:59;87.20;;;10.10;;
20497;SDS011;10407;53.238;10.448;2023-03-31T04:14:26;89.30;;;10.60;;
20497;SDS011;10407;53.238;10.448;2023-03-31T04:16:54;82.00;;;10.10;;
20497;SDS011;10407;53.238;10.448;2023-03-31T04:19:23;81.17;;;9.50;;
20497;SDS011;10407;53.238;10.448;2023-03-31T04:21:52;84.37;;;10.53;;
20497;SDS011;10407;53.238;10.448;2023-03-31T04:24:27;84.47;;;9.23;;
20497;SDS011;10407;53.238;10.448;2023-03-31T04:26:58;85.87;;;10.37;;
20497;SDS011;10407;53.238;10.448;2023-03-31T04:29:27;89.50;;;9.30;;
20497;SDS011;10407;53.238;10.448;2023-03-31T04:31:56;80.50;;;10.17;;
20497;SDS011;10407;53.238;10.448;2023-03-31T04:34:25;82.13;;;8.27;;
20497;SDS011;10407;53.238;10.448;2023-03-31T04:36:54;92.33;;;11.37;;
20497;SDS011;10407;53.238;10.448;2023-03-31T04:39:22;84.60;;;10.63;;
20497;SDS011;10407;53.238;10.448;2023-03-31T04:41:54;85.70;;;11.47;;
20497;SDS011;10407;53.238;10.448;2023-03-31T04:44:23;83.30;;;10.63;;
20497;SDS011;10407;53.238;10.448;2023-03-31T04:46:52;86.00;;;9.33;;
20497;SDS011;10407;53.238;10.448;2023-03-31T04:49:20;85.53;;;10.20;;
20497;SDS011;10407;53.238;10.448;2023-03-31T04:51:47;87.10;;;10.33;;
20497;SDS011;10407;53.238;10.448;2023-03-31T04:54:15;81.40;;;8.90;;
20497;SDS011;10407;53.238;10.448;2023-03-31T04:56:42;90.33;;;9.83;;
20497;SDS011;10407;53.238;10.448;2023-03-31T04:59:10;89.97;;;11.00;;
20497;SDS011;10407;53.238;10.448;2023-03-31T05:01:37;88.10;;;8.60;;
20497;SDS011;10407;53.238;10.448;2023-03-31T05:04:07;81.60;;;8.73;;
20497;SDS011;10407;53.238;10.448;2023-03-31T05:06:35;90.83;;;9.90;;
20497;SDS011;10407;53.238;10.448;2023-03-31T05:09:03;81.90;;;8.07;;
20497;SDS011;10407;53.238;10.448;2023-03-31T05:11:31;90.53;;;10.57;;
20497;SDS011;10407;53.238;10.448;2023-03-31T05:14:00;82.63;;;8.73;;
20497;SDS011;10407;53.238;10.448;2023-03-31T05:16:28;90.60;;;8.57;;
20497;SDS011;10407;53.238;10.448;2023-03-31T05:18:55;82.60;;;9.27;;
20497;SDS011;10407;53.238;10.448;2023-03-31T05:21:23;81.50;;;8.77;;
20497;SDS011;10407;53.238;10.448;2023-03-31T05:23:51;82.80;;;8.60;;
20497;SDS011;10407;53.238;10.448;2023-03-31T05:26:19;81.73;;;9.23;;
20497;SDS011;10407;53.238;10.448;2023-03-31T05:28:48;85.93;;;8.60;;
20497;SDS011;10407;53.238;10.448;2023-03-31T05:31:17;83.10;;;8.77;;
20497;SDS011;10407;53.238;10.448;2023-03-31T05:33:44;85.70;;;7.83;;
20497;SDS011;10407;53.238;10.448;2023-03-31T05:36:13;81.13;;;8.30;;
20497;SDS011;10407;53.238;10.448;2023-03-31T05:38:42;81.00;;;6.87;;
20497;SDS011;10407;53.238;10.448;2023-03-31T05:41:10;79.73;;;8.33;;
20497;SDS011;10407;53.238;10.448;2023-03-31T05:43:38;79.33;;;7.60;;
20497;SDS011;10407;53.238;10.448;2023-03-31T05:46:05;78.97;;;7.80;;
20497;SDS011;10407;53.238;10.448;2023-03-31T05:48:33;84.73;;;9.73;;
20497;SDS011;10407;53.238;10.448;2023-03-31T05:51:02;88.07;;;8.13;;
20497;SDS011;10407;53.238;10.448;2023-03-31T05:53:30;83.97;;;8.57;;
20497;SDS011;10407;53.238;10.448;2023-03-31T05:55:59;80.33;;;8.00;;
20497;SDS011;10407;53.238;10.448;2023-03-31T05:58:28;81.07;;;7.73;;
20497;SDS011;10407;53.238;10.448;2023-03-31T06:00:59;84.00;;;9.37;;
20497;SDS011;10407;53.238;10.448;2023-03-31T06:03:30;79.20;;;7.70;;
20497;SDS011;10407;53.238;10.448;2023-03-31T06:05:59;85.67;;;8.33;;
20497;SDS011;10407;53.238;10.448;2023-03-31T06:08:28;83.53;;;8.20;;
20497;SDS011;10407;53.238;10.448;2023-03-31T06:10:56;84.53;;;8.27;;
20497;SDS011;10407;53.238;10.448;2023-03-31T06:13:24;83.43;;;8.30;;
20497;SDS011;10407;53.238;10.448;2023-03-31T06:15:56;82.23;;;6.70;;
20497;SDS011;10407;53.238;10.448;2023-03-31T06:18:25;81.83;;;7.90;;
20497;SDS011;10407;53.238;10.448;2023-03-31T06:20:55;80.27;;;8.23;;
20497;SDS011;10407;53.238;10.448;2023-03-31T06:23:23;76.50;;;6.10;;
20497;SDS011;10407;53.238;10.448;2023-03-31T06:25:51;78.10;;;7.10;;
20497;SDS011;10407;53.238;10.448;2023-03-31T06:28:20;77.70;;;6.47;;
20497;SDS011;10407;53.238;10.448;2023-03-31T06:30:47;83.87;;;9.63;;
20497;SDS011;10407;53.238;10.448;2023-03-31T06:33:15;89.00;;;10.63;;
20497;SDS011;10407;53.238;10.448;2023-03-31T06:35:42;78.63;;;7.10;;
20497;SDS011;10407;53.238;10.448;2023-03-31T06:38:10;81.70;;;6.20;;
20497;SDS011;10407;53.238;10.448;2023-03-31T06:40:37;79.97;;;6.77;;
20497;SDS011;10407;53.238;10.448;2023-03-31T06:43:05;81.17;;;7.03;;
20497;SDS011;10407;53.238;10.448;2023-03-31T06:45:33;87.77;;;6.97;;
20497;SDS011;10407;53.238;10.448;2023-03-31T06:48:02;85.43;;;8.10;;
20497;SDS011;10407;53.238;10.448;2023-03-31T06:50:30;77.37;;;6.53;;
20497;SDS011;10407;53.238;10.448;2023-03-31T06:52:57;98.80;;;10.80;;
20497;SDS011;10407;53.238;10.448;2023-03-31T06:55:25;82.37;;;8.77;;
20497;SDS011;10407;53.238;10.448;2023-03-31T06:57:52;78.80;;;7.10;;
20497;SDS011;10407;53.238;10.448;2023-03-31T07:00:20;81.70;;;8.90;;
20497;SDS011;10407;53.238;10.448;2023-03-31T07:02:49;82.20;;;6.10;;
20497;SDS011;10407;53.238;10.448;2023-03-31T07:05:17;90.97;;;10.63;;
20497;SDS011;10407;53.238;10.448;2023-03-31T07:07:47;81.90;;;7.77;;
20497;SDS011;10407;53.238;10.448;2023-03-31T07:10:14;86.73;;;10.53;;
20497;SDS011;10407;53.238;10.448;2023-03-31T07:12:42;80.60;;;7.70;;
20497;SDS011;10407;53.238;10.448;2023-03-31T07:15:09;79.03;;;6.50;;
20497;SDS011;10407;53.238;10.448;2023-03-31T07:17:37;78.50;;;6.30;;
20497;SDS011;10407;53.238;10.448;2023-03-31T07:20:09;80.00;;;6.60;;
20497;SDS011;10407;53.238;10.448;2023-03-31T07:22:40;80.10;;;6.73;;
20497;SDS011;10407;53.238;10.448;2023-03-31T07:25:08;75.63;;;5.10;;
20497;SDS011;10407;53.238;10.448;2023-03-31T07:27:37;79.77;;;7.07;;
20497;SDS011;10407;53.238;10.448;2023-03-31T07:30:06;77.10;;;5.83;;
20497;SDS011;10407;53.238;10.448;2023-03-31T07:32:35;81.93;;;6.23;;
20497;SDS011;10407;53.238;10.448;2023-03-31T07:35:06;75.40;;;6.37;;
20497;SDS011;10407;53.238;10.448;2023-03-31T07:37:35;79.40;;;6.50;;
20497;SDS011;10407;53.238;10.448;2023-03-31T07:40:04;79.10;;;5.87;;
20497;SDS011;10407;53.238;10.448;2023-03-31T07:42:33;79.57;;;6.67;;
20497;SDS011;10407;53.238;10.448;2023-03-31T07:45:01;76.90;;;4.87;;
20497;SDS011;10407;53.238;10.448;2023-03-31T07:47:31;83.33;;;5.30;;
20497;SDS011;10407;53.238;10.448;2023-03-31T07:49:58;80.03;;;6.33;;
20497;SDS011;10407;53.238;10.448;2023-03-31T07:52:26;76.70;;;6.33;;
20497;SDS011;10407;53.238;10.448;2023-03-31T07:54:53;77.50;;;5.90;;
20497;SDS011;10407;53.238;10.448;2023-03-31T07:57:21;83.00;;;7.50;;
20497;SDS011;10407;53.238;10.448;2023-03-31T07:59:48;83.47;;;6.27;;
20497;SDS011;10407;53.238;10.448;2023-03-31T08:02:16;79.97;;;5.70;;
20497;SDS011;10407;53.238;10.448;2023-03-31T08:04:44;78.10;;;5.63;;
20497;SDS011;10407;53.238;10.448;2023-03-31T08:07:13;78.13;;;5.90;;
20497;SDS011;10407;53.238;10.448;2023-03-31T08:09:45;78.50;;;5.60;;
20497;SDS011;10407;53.238;10.448;2023-03-31T08:12:13;82.20;;;8.03;;
20497;SDS011;10407;53.238;10.448;2023-03-31T08:14:41;80.30;;;6.13;;
20497;SDS011;10407;53.238;10.448;2023-03-31T08:17:09;78.43;;;5.80;;
20497;SDS011;10407;53.238;10.448;2023-03-31T08:19:36;78.80;;;7.20;;
20497;SDS011;10407;53.238;10.448;2023-03-31T08:22:04;76.73;;;5.73;;
20497;SDS011;10407;53.238;10.448;2023-03-31T08:24:32;86.03;;;5.97;;
20497;SDS011;10407;53.238;10.448;2023-03-31T08:26:59;77.10;;;5.97;;
20497;SDS011;10407;53.238;10.448;2023-03-31T08:29:27;75.67;;;5.53;;
20497;SDS011;10407;53.238;10.448;2023-03-31T08:31:54;80.60;;;6.23;;
20497;SDS011;10407;53.238;10.448;2023-03-31T08:34:21;78.80;;;5.67;;
20497;SDS011;10407;53.238;10.448;2023-03-31T08:36:49;77.07;;;5.83;;
20497;SDS011;10407;53.238;10.448;2023-03-31T08:39:16;76.47;;;5.30;;
20497;SDS011;10407;53.238;10.448;2023-03-31T08:44:46;79.20;;;6.20;;
20497;SDS011;10407;53.238;10.448;2023-03-31T08:47:28;74.57;;;6.20;;
20497;SDS011;10407;53.238;10.448;2023-03-31T08:49:59;73.67;;;4.33;;
20497;SDS011;10407;53.238;10.448;2023-03-31T08:52:30;73.47;;;4.83;;
20497;SDS011;10407;53.238;10.448;2023-03-31T08:55:09;76.27;;;4.80;;
20497;SDS011;10407;53.238;10.448;2023-03-31T08:57:35;76.43;;;5.30;;
20497;SDS011;10407;53.238;10.448;2023-03-31T09:00:03;73.40;;;4.50;;
20497;SDS011;10407;53.238;10.448;2023-03-31T09:02:41;75.60;;;4.97;;
20497;SDS011;10407;53.238;10.448;2023-03-31T09:07:58;75.73;;;6.13;;
20497;SDS011;10407;53.238;10.448;2023-03-31T09:10:31;77.80;;;5.17;;
20497;SDS011;10407;53.238;10.448;2023-03-31T09:15:39;78.00;;;4.67;;
20497;SDS011;10407;53.238;10.448;2023-03-31T09:18:31;76.13;;;5.37;;
20497;SDS011;10407;53.238;10.448;2023-03-31T09:26:50;79.70;;;5.50;;
20497;SDS011;10407;53.238;10.448;2023-03-31T09:29:23;75.47;;;4.83;;
20497;SDS011;10407;53.238;10.448;2023-03-31T09:32:01;78.00;;;5.07;;
20497;SDS011;10407;53.238;10.448;2023-03-31T09:34:34;77.17;;;4.87;;
20497;SDS011;10407;53.238;10.448;2023-03-31T09:37:02;77.30;;;5.50;;
20497;SDS011;10407;53.238;10.448;2023-03-31T09:39:30;75.87;;;4.90;;
20497;SDS011;10407;53.238;10.448;2023-03-31T09:41:57;73.10;;;3.90;;
20497;SDS011;10407;53.238;10.448;2023-03-31T09:44:30;74.50;;;5.10;;
20497;SDS011;10407;53.238;10.448;2023-03-31T09:46:55;77.77;;;4.37;;
20497;SDS011;10407;53.238;10.448;2023-03-31T09:49:27;73.70;;;4.33;;
20497;SDS011;10407;53.238;10.448;2023-03-31T09:52:00;74.23;;;5.13;;
20497;SDS011;10407;53.238;10.448;2023-03-31T09:54:48;76.63;;;4.53;;
20497;SDS011;10407;53.238;10.448;2023-03-31T09:57:34;72.27;;;4.53;;
20497;SDS011;10407;53.238;10.448;2023-03-31T10:02:48;73.70;;;5.20;;
20497;SDS011;10407;53.238;10.448;2023-03-31T10:08:40;73.70;;;5.07;;
20497;SDS011;10407;53.238;10.448;2023-03-31T10:10:44;74.50;;;5.00;;
20497;SDS011;10407;53.238;10.448;2023-03-31T10:13:20;76.40;;;5.23;;
20497;SDS011;10407;53.238;10.448;2023-03-31T10:15:53;74.00;;;5.10;;
20497;SDS011;10407;53.238;10.448;2023-03-31T10:18:30;73.40;;;4.63;;
20497;SDS011;10407;53.238;10.448;2023-03-31T10:20:56;76.07;;;5.10;;
20497;SDS011;10407;53.238;10.448;2023-03-31T10:23:26;73.33;;;4.80;;
20497;SDS011;10407;53.238;10.448;2023-03-31T10:25:55;76.53;;;4.80;;
20497;SDS011;10407;53.238;10.448;2023-03-31T10:28:22;80.73;;;5.27;;
20497;SDS011;10407;53.238;10.448;2023-03-31T10:30:51;74.97;;;4.93;;
20497;SDS011;10407;53.238;10.448;2023-03-31T10:33:23;79.97;;;6.63;;
20497;SDS011;10407;53.238;10.448;2023-03-31T10:35:56;77.03;;;5.43;;
20497;SDS011;10407;53.238;10.448;2023-03-31T10:41:02;75.27;;;6.30;;
20497;SDS011;10407;53.238;10.448;2023-03-31T10:43:39;77.20;;;5.60;;
20497;SDS011;10407;53.238;10.448;2023-03-31T10:46:09;75.30;;;5.20;;
20497;SDS011;10407;53.238;10.448;2023-03-31T10:48:39;74.40;;;4.47;;
20497;SDS011;10407;53.238;10.448;2023-03-31T10:53:46;75.03;;;5.13;;
20497;SDS011;10407;53.238;10.448;2023-03-31T10:56:22;80.03;;;5.20;;
20497;SDS011;10407;53.238;10.448;2023-03-31T11:13:04;75.07;;;5.87;;
20497;SDS011;10407;53.238;10.448;2023-03-31T11:15:35;73.37;;;5.60;;
20497;SDS011;10407;53.238;10.448;2023-03-31T11:18:28;74.00;;;4.90;;
20497;SDS011;10407;53.238;10.448;2023-03-31T11:26:54;76.77;;;5.40;;
20497;SDS011;10407;53.238;10.448;2023-03-31T11:37:35;78.23;;;7.00;;
20497;SDS011;10407;53.238;10.448;2023-03-31T11:42:56;76.87;;;7.00;;
20497;SDS011;10407;53.238;10.448;2023-03-31T11:45:33;75.93;;;5.90;;
20497;SDS011;10407;53.238;10.448;2023-03-31T11:48:03;73.80;;;4.60;;
20497;SDS011;10407;53.238;10.448;2023-03-31T11:50:32;77.40;;;6.60;;
20497;SDS011;10407;53.238;10.448;2023-03-31T11:53:05;73.57;;;6.40;;
20497;SDS011;10407;53.238;10.448;2023-03-31T11:55:35;76.50;;;5.80;;
20497;SDS011;10407;53.238;10.448;2023-03-31T11:58:06;79.67;;;7.10;;
20497;SDS011;10407;53.238;10.448;2023-03-31T12:00:49;74.77;;;6.10;;
20497;SDS011;10407;53.238;10.448;2023-03-31T12:06:17;77.30;;;6.37;;
20497;SDS011;10407;53.238;10.448;2023-03-31T12:11:40;76.40;;;5.80;;
20497;SDS011;10407;53.238;10.448;2023-03-31T12:14:12;75.10;;;5.80;;
20497;SDS011;10407;53.238;10.448;2023-03-31T12:16:46;74.40;;;5.63;;
20497;SDS011;10407;53.238;10.448;2023-03-31T12:19:17;76.40;;;7.00;;
20497;SDS011;10407;53.238;10.448;2023-03-31T12:21:59;76.37;;;6.00;;
20497;SDS011;10407;53.238;10.448;2023-03-31T12:24:26;78.20;;;6.10;;
20497;SDS011;10407;53.238;10.448;2023-03-31T12:27:15;75.83;;;5.70;;
20497;SDS011;10407;53.238;10.448;2023-03-31T12:32:27;76.53;;;5.17;;
20497;SDS011;10407;53.238;10.448;2023-03-31T12:35:00;78.73;;;5.83;;
20497;SDS011;10407;53.238;10.448;2023-03-31T12:40:17;77.47;;;5.23;;
20497;SDS011;10407;53.238;10.448;2023-03-31T12:43:00;80.27;;;6.20;;
20497;SDS011;10407;53.238;10.448;2023-03-31T12:45:46;78.80;;;5.00;;
20497;SDS011;10407;53.238;10.448;2023-03-31T12:48:50;74.60;;;5.60;;
20497;SDS011;10407;53.238;10.448;2023-03-31T12:57:20;77.47;;;7.23;;
20497;SDS011;10407;53.238;10.448;2023-03-31T13:02:42;73.87;;;5.67;;
20497;SDS011;10407;53.238;10.448;2023-03-31T13:08:07;73.10;;;4.87;;
20497;SDS011;10407;53.238;10.448;2023-03-31T13:13:24;76.37;;;5.67;;
20497;SDS011;10407;53.238;10.448;2023-03-31T13:15:55;76.00;;;5.90;;
20497;SDS011;10407;53.238;10.448;2023-03-31T13:18:24;72.00;;;4.70;;
20497;SDS011;10407;53.238;10.448;2023-03-31T13:20:59;74.40;;;6.10;;
20497;SDS011;10407;53.238;10.448;2023-03-31T13:23:30;76.13;;;4.80;;
20497;SDS011;10407;53.238;10.448;2023-03-31T13:26:00;73.70;;;5.73;;
20497;SDS011;10407;53.238;10.448;2023-03-31T13:28:32;72.77;;;4.57;;
20497;SDS011;10407;53.238;10.448;2023-03-31T13:31:06;72.90;;;5.00;;
20497;SDS011;10407;53.238;10.448;2023-03-31T13:33:36;75.10;;;5.50;;
20497;SDS011;10407;53.238;10.448;2023-03-31T13:42:07;72.90;;;5.50;;
20497;SDS011;10407;53.238;10.448;2023-03-31T13:58:39;72.60;;;4.73;;
20497;SDS011;10407;53.238;10.448;2023-03-31T14:01:34;73.40;;;4.93;;
20497;SDS011;10407;53.238;10.448;2023-03-31T14:06:46;74.87;;;4.50;;
20497;SDS011;10407;53.238;10.448;2023-03-31T14:11:59;74.80;;;5.07;;
20497;SDS011;10407;53.238;10.448;2023-03-31T14:14:28;77.00;;;6.00;;
20497;SDS011;10407;53.238;10.448;2023-03-31T14:16:56;74.97;;;5.90;;
20497;SDS011;10407;53.238;10.448;2023-03-31T14:22:43;76.93;;;4.90;;
20497;SDS011;10407;53.238;10.448;2023-03-31T14:25:14;74.27;;;3.93;;
20497;SDS011;10407;53.238;10.448;2023-03-31T14:36:00;76.73;;;5.27;;
20497;SDS011;10407;53.238;10.448;2023-03-31T14:38:23;73.90;;;4.50;;
20497;SDS011;10407;53.238;10.448;2023-03-31T14:40:52;73.67;;;4.30;;
20497;SDS011;10407;53.238;10.448;2023-03-31T14:43:24;74.33;;;5.07;;
20497;SDS011;10407;53.238;10.448;2023-03-31T14:45:57;71.80;;;4.30;;
20497;SDS011;10407;53.238;10.448;2023-03-31T14:48:31;74.03;;;4.57;;
20497;SDS011;10407;53.238;10.448;2023-03-31T14:51:07;71.67;;;4.63;;
20497;SDS011;10407;53.238;10.448;2023-03-31T14:53:34;73.30;;;5.20;;
20497;SDS011;10407;53.238;10.448;2023-03-31T14:56:07;78.10;;;4.83;;
20497;SDS011;10407;53.238;10.448;2023-03-31T14:58:33;75.37;;;5.50;;
20497;SDS011;10407;53.238;10.448;2023-03-31T15:01:03;72.80;;;5.47;;
20497;SDS011;10407;53.238;10.448;2023-03-31T15:03:34;72.50;;;4.33;;
20497;SDS011;10407;53.238;10.448;2023-03-31T15:06:06;87.90;;;11.40;;
20497;SDS011;10407;53.238;10.448;2023-03-31T15:08:34;84.93;;;9.77;;
20497;SDS011;10407;53.238;10.448;2023-03-31T15:13:52;77.80;;;5.63;;
20497;SDS011;10407;53.238;10.448;2023-03-31T15:19:29;77.73;;;5.67;;
20497;SDS011;10407;53.238;10.448;2023-03-31T15:21:58;74.50;;;5.00;;
20497;SDS011;10407;53.238;10.448;2023-03-31T15:24:24;74.60;;;5.10;;
20497;SDS011;10407;53.238;10.448;2023-03-31T15:29:43;73.93;;;4.57;;
20497;SDS011;10407;53.238;10.448;2023-03-31T15:32:25;72.20;;;4.90;;
20497;SDS011;10407;53.238;10.448;2023-03-31T15:34:51;71.60;;;4.13;;
20497;SDS011;10407;53.238;10.448;2023-03-31T15:37:21;76.50;;;5.43;;
20497;SDS011;10407;53.238;10.448;2023-03-31T15:39:58;72.53;;;4.23;;
20497;SDS011;10407;53.238;10.448;2023-03-31T15:42:23;72.37;;;4.47;;
20497;SDS011;10407;53.238;10.448;2023-03-31T15:45:23;74.57;;;4.50;;
20497;SDS011;10407;53.238;10.448;2023-03-31T15:47:49;73.33;;;4.87;;
20497;SDS011;10407;53.238;10.448;2023-03-31T15:50:23;73.17;;;4.63;;
20497;SDS011;10407;53.238;10.448;2023-03-31T15:52:48;75.00;;;4.60;;
20497;SDS011;10407;53.238;10.448;2023-03-31T15:55:28;72.13;;;4.43;;
20497;SDS011;10407;53.238;10.448;2023-03-31T15:57:58;73.20;;;4.90;;
20497;SDS011;10407;53.238;10.448;2023-03-31T16:03:13;73.93;;;4.97;;
20497;SDS011;10407;53.238;10.448;2023-03-31T16:05:51;74.27;;;5.50;;
20497;SDS011;10407;53.238;10.448;2023-03-31T16:08:30;73.50;;;5.03;;
20497;SDS011;10407;53.238;10.448;2023-03-31T16:11:06;74.00;;;5.50;;
20497;SDS011;10407;53.238;10.448;2023-03-31T16:13:32;75.33;;;5.10;;
20497;SDS011;10407;53.238;10.448;2023-03-31T16:16:00;73.90;;;4.47;;
20497;SDS011;10407;53.238;10.448;2023-03-31T16:18:32;72.50;;;4.40;;
20497;SDS011;10407;53.238;10.448;2023-03-31T16:21:03;72.80;;;3.97;;
20497;SDS011;10407;53.238;10.448;2023-03-31T16:23:34;73.67;;;4.20;;
20497;SDS011;10407;53.238;10.448;2023-03-31T16:26:06;72.10;;;4.80;;
20497;SDS011;10407;53.238;10.448;2023-03-31T16:28:34;75.07;;;5.50;;
20497;SDS011;10407;53.238;10.448;2023-03-31T16:31:04;86.20;;;10.07;;
20497;SDS011;10407;53.238;10.448;2023-03-31T16:33:53;84.67;;;8.37;;
20497;SDS011;10407;53.238;10.448;2023-03-31T16:36:22;80.47;;;6.57;;
20497;SDS011;10407;53.238;10.448;2023-03-31T16:38:50;73.90;;;5.90;;
20497;SDS011;10407;53.238;10.448;2023-03-31T16:41:19;81.70;;;8.57;;
20497;SDS011;10407;53.238;10.448;2023-03-31T16:43:48;77.40;;;6.23;;
20497;SDS011;10407;53.238;10.448;2023-03-31T16:46:20;81.60;;;8.30;;
20497;SDS011;10407;53.238;10.448;2023-03-31T16:48:48;77.50;;;5.93;;
20497;SDS011;10407;53.238;10.448;2023-03-31T16:51:16;75.70;;;6.57;;
20497;SDS011;10407;53.238;10.448;2023-03-31T16:53:44;79.10;;;7.77;;
20497;SDS011;10407;53.238;10.448;2023-03-31T16:56:12;90.30;;;11.60;;
20497;SDS011;10407;53.238;10.448;2023-03-31T16:58:40;78.23;;;9.00;;
20497;SDS011;10407;53.238;10.448;2023-03-31T17:01:08;78.00;;;6.10;;
20497;SDS011;10407;53.238;10.448;2023-03-31T17:03:36;77.70;;;6.40;;
20497;SDS011;10407;53.238;10.448;2023-03-31T17:06:10;75.27;;;5.63;;
20497;SDS011;10407;53.238;10.448;2023-03-31T17:08:38;74.30;;;5.50;;
20497;SDS011;10407;53.238;10.448;2023-03-31T17:11:07;75.40;;;6.10;;
20497;SDS011;10407;53.238;10.448;2023-03-31T17:13:37;78.07;;;6.40;;
20497;SDS011;10407;53.238;10.448;2023-03-31T17:16:06;75.70;;;7.00;;